sensor_id;sensor_type;location;lat;lon;timestamp;P1;durP1;ratioP1;P2;durP2;ratioP2
4857;SDS011;58975;51.978;8.472;2023-04-24T00:00:15;0.40;;;0.40;;
4857;SDS011;58975;51.978;8.472;2023-04-24T00:05:14;0.40;;;0.40;;
4857;SDS011;58975;51.978;8.472;2023-04-24T00:10:11;0.30;;;0.30;;
4857;SDS011;58975;51.978;8.472;2023-04-24T00:15:08;0.40;;;0.30;;
4857;SDS011;58975;51.978;8.472;2023-04-24T00:20:05;0.47;;;0.47;;
4857;SDS011;58975;51.978;8.472;2023-04-24T00:25:03;0.68;;;0.40;;
4857;SDS011;58975;51.978;8.472;2023-04-24T00:29:59;0.63;;;0.40;;
4857;SDS011;58975;51.978;8.472;2023-04-24T00:34:55;0.50;;;0.47;;
4857;SDS011;58975;51.978;8.472;2023-04-24T00:39:52;0.70;;;0.70;;
4857;SDS011;58975;51.978;8.472;2023-04-24T00:44:48;1.23;;;0.82;;
4857;SDS011;58975;51.978;8.472;2023-04-24T00:49:45;1.17;;;0.45;;
4857;SDS011;58975;51.978;8.472;2023-04-24T00:54:41;0.57;;;0.47;;
4857;SDS011;58975;51.978;8.472;2023-04-24T00:59:38;1.30;;;1.20;;
4857;SDS011;58975;51.978;8.472;2023-04-24T01:04:37;3.78;;;0.80;;
4857;SDS011;58975;51.978;8.472;2023-04-24T01:09:34;1.15;;;0.95;;
4857;SDS011;58975;51.978;8.472;2023-04-24T01:14:31;2.95;;;1.30;;
4857;SDS011;58975;51.978;8.472;2023-04-24T01:19:28;1.73;;;1.00;;
4857;SDS011;58975;51.978;8.472;2023-04-24T01:24:24;0.88;;;0.73;;
4857;SDS011;58975;51.978;8.472;2023-04-24T01:29:21;2.67;;;0.95;;
4857;SDS011;58975;51.978;8.472;2023-04-24T01:34:17;0.80;;;0.50;;
4857;SDS011;58975;51.978;8.472;2023-04-24T01:39:14;0.93;;;0.60;;
4857;SDS011;58975;51.978;8.472;2023-04-24T01:44:11;0.70;;;0.70;;
4857;SDS011;58975;51.978;8.472;2023-04-24T01:49:08;1.10;;;0.50;;
4857;SDS011;58975;51.978;8.472;2023-04-24T01:54:04;0.60;;;0.60;;
4857;SDS011;58975;51.978;8.472;2023-04-24T01:59:02;0.40;;;0.40;;
4857;SDS011;58975;51.978;8.472;2023-04-24T02:03:59;0.70;;;0.70;;
4857;SDS011;58975;51.978;8.472;2023-04-24T02:08:59;1.17;;;1.08;;
4857;SDS011;58975;51.978;8.472;2023-04-24T02:13:56;3.30;;;0.95;;
4857;SDS011;58975;51.978;8.472;2023-04-24T02:18:52;2.58;;;0.80;;
4857;SDS011;58975;51.978;8.472;2023-04-24T02:23:49;1.48;;;0.70;;
4857;SDS011;58975;51.978;8.472;2023-04-24T02:28:45;0.95;;;0.88;;
4857;SDS011;58975;51.978;8.472;2023-04-24T02:33:42;1.13;;;0.70;;
4857;SDS011;58975;51.978;8.472;2023-04-24T02:38:38;4.53;;;0.80;;
4857;SDS011;58975;51.978;8.472;2023-04-24T02:43:34;1.00;;;0.70;;
4857;SDS011;58975;51.978;8.472;2023-04-24T02:48:31;0.50;;;0.50;;
4857;SDS011;58975;51.978;8.472;2023-04-24T02:53:27;3.60;;;0.82;;
4857;SDS011;58975;51.978;8.472;2023-04-24T02:58:25;2.78;;;0.80;;
4857;SDS011;58975;51.978;8.472;2023-04-24T03:03:22;0.73;;;0.70;;
4857;SDS011;58975;51.978;8.472;2023-04-24T03:08:20;2.08;;;0.77;;
4857;SDS011;58975;51.978;8.472;2023-04-24T03:13:16;0.93;;;0.80;;
4857;SDS011;58975;51.978;8.472;2023-04-24T03:18:13;2.28;;;0.70;;
4857;SDS011;58975;51.978;8.472;2023-04-24T03:23:09;0.65;;;0.65;;
4857;SDS011;58975;51.978;8.472;2023-04-24T03:28:05;0.60;;;0.60;;
4857;SDS011;58975;51.978;8.472;2023-04-24T03:33:02;0.93;;;0.85;;
4857;SDS011;58975;51.978;8.472;2023-04-24T03:37:58;2.15;;;0.63;;
4857;SDS011;58975;51.978;8.472;2023-04-24T03:42:55;1.13;;;0.70;;
4857;SDS011;58975;51.978;8.472;2023-04-24T03:47:51;2.42;;;1.30;;
4857;SDS011;58975;51.978;8.472;2023-04-24T03:52:47;2.15;;;1.58;;
4857;SDS011;58975;51.978;8.472;2023-04-24T03:57:44;1.88;;;1.38;;
4857;SDS011;58975;51.978;8.472;2023-04-24T04:02:41;1.92;;;1.65;;
4857;SDS011;58975;51.978;8.472;2023-04-24T04:07:37;1.88;;;1.70;;
4857;SDS011;58975;51.978;8.472;2023-04-24T04:12:34;1.65;;;1.50;;
4857;SDS011;58975;51.978;8.472;2023-04-24T04:17:30;2.13;;;1.70;;
4857;SDS011;58975;51.978;8.472;2023-04-24T04:22:26;3.75;;;2.25;;
4857;SDS011;58975;51.978;8.472;2023-04-24T04:27:23;2.28;;;1.77;;
4857;SDS011;58975;51.978;8.472;2023-04-24T04:32:20;7.70;;;1.65;;
4857;SDS011;58975;51.978;8.472;2023-04-24T04:37:16;5.63;;;2.22;;
4857;SDS011;58975;51.978;8.472;2023-04-24T04:42:13;2.45;;;2.15;;
4857;SDS011;58975;51.978;8.472;2023-04-24T04:47:09;5.43;;;2.97;;
4857;SDS011;58975;51.978;8.472;2023-04-24T04:52:06;5.38;;;3.13;;
4857;SDS011;58975;51.978;8.472;2023-04-24T04:57:03;6.95;;;5.03;;
4857;SDS011;58975;51.978;8.472;2023-04-24T05:02:00;9.70;;;5.75;;
4857;SDS011;58975;51.978;8.472;2023-04-24T05:06:56;13.18;;;5.47;;
4857;SDS011;58975;51.978;8.472;2023-04-24T05:11:53;8.82;;;5.60;;
4857;SDS011;58975;51.978;8.472;2023-04-24T05:16:49;8.57;;;5.90;;
4857;SDS011;58975;51.978;8.472;2023-04-24T05:21:46;7.40;;;5.50;;
4857;SDS011;58975;51.978;8.472;2023-04-24T05:26:42;9.10;;;6.22;;
4857;SDS011;58975;51.978;8.472;2023-04-24T05:31:38;11.38;;;6.00;;
4857;SDS011;58975;51.978;8.472;2023-04-24T05:36:35;10.80;;;6.55;;
4857;SDS011;58975;51.978;8.472;2023-04-24T05:41:31;13.80;;;7.22;;
4857;SDS011;58975;51.978;8.472;2023-04-24T05:46:28;11.52;;;7.68;;
4857;SDS011;58975;51.978;8.472;2023-04-24T05:51:24;12.00;;;7.60;;
4857;SDS011;58975;51.978;8.472;2023-04-24T05:56:21;13.50;;;8.68;;
4857;SDS011;58975;51.978;8.472;2023-04-24T06:01:19;13.52;;;8.18;;
4857;SDS011;58975;51.978;8.472;2023-04-24T06:06:16;13.75;;;8.85;;
4857;SDS011;58975;51.978;8.472;2023-04-24T06:11:12;15.73;;;9.35;;
4857;SDS011;58975;51.978;8.472;2023-04-24T06:16:08;16.17;;;10.25;;
4857;SDS011;58975;51.978;8.472;2023-04-24T06:21:05;17.00;;;9.60;;
4857;SDS011;58975;51.978;8.472;2023-04-24T06:26:02;17.23;;;9.88;;
4857;SDS011;58975;51.978;8.472;2023-04-24T06:30:58;18.98;;;10.05;;
4857;SDS011;58975;51.978;8.472;2023-04-24T06:35:55;13.15;;;9.27;;
4857;SDS011;58975;51.978;8.472;2023-04-24T06:40:51;15.02;;;9.05;;
4857;SDS011;58975;51.978;8.472;2023-04-24T06:45:47;13.52;;;9.40;;
4857;SDS011;58975;51.978;8.472;2023-04-24T06:50:44;16.65;;;9.05;;
4857;SDS011;58975;51.978;8.472;2023-04-24T06:55:41;16.83;;;9.60;;
4857;SDS011;58975;51.978;8.472;2023-04-24T07:00:39;13.90;;;9.75;;
4857;SDS011;58975;51.978;8.472;2023-04-24T07:05:35;19.88;;;9.60;;
4857;SDS011;58975;51.978;8.472;2023-04-24T07:10:33;13.00;;;8.35;;
4857;SDS011;58975;51.978;8.472;2023-04-24T07:15:31;12.93;;;8.20;;
4857;SDS011;58975;51.978;8.472;2023-04-24T07:20:28;9.27;;;7.10;;
4857;SDS011;58975;51.978;8.472;2023-04-24T07:25:24;11.43;;;7.57;;
4857;SDS011;58975;51.978;8.472;2023-04-24T07:30:21;11.25;;;6.57;;
4857;SDS011;58975;51.978;8.472;2023-04-24T07:35:17;15.00;;;7.28;;
4857;SDS011;58975;51.978;8.472;2023-04-24T07:40:14;9.02;;;6.13;;
4857;SDS011;58975;51.978;8.472;2023-04-24T07:45:10;8.38;;;6.30;;
4857;SDS011;58975;51.978;8.472;2023-04-24T07:50:07;9.57;;;5.97;;
4857;SDS011;58975;51.978;8.472;2023-04-24T07:55:03;7.38;;;5.13;;
4857;SDS011;58975;51.978;8.472;2023-04-24T08:00:02;5.97;;;4.22;;
4857;SDS011;58975;51.978;8.472;2023-04-24T08:04:59;5.75;;;4.38;;
4857;SDS011;58975;51.978;8.472;2023-04-24T08:09:56;6.55;;;4.32;;
4857;SDS011;58975;51.978;8.472;2023-04-24T08:14:52;6.70;;;4.13;;
4857;SDS011;58975;51.978;8.472;2023-04-24T08:19:48;4.25;;;3.47;;
4857;SDS011;58975;51.978;8.472;2023-04-24T08:24:47;4.20;;;3.80;;
4857;SDS011;58975;51.978;8.472;2023-04-24T08:29:43;7.38;;;3.22;;
4857;SDS011;58975;51.978;8.472;2023-04-24T08:34:40;5.78;;;3.45;;
4857;SDS011;58975;51.978;8.472;2023-04-24T08:39:36;4.63;;;3.00;;
4857;SDS011;58975;51.978;8.472;2023-04-24T08:44:33;4.78;;;3.20;;
4857;SDS011;58975;51.978;8.472;2023-04-24T08:49:32;3.85;;;2.40;;
4857;SDS011;58975;51.978;8.472;2023-04-24T08:54:29;3.33;;;2.50;;
4857;SDS011;58975;51.978;8.472;2023-04-24T08:59:25;3.17;;;2.40;;
4857;SDS011;58975;51.978;8.472;2023-04-24T09:04:22;3.08;;;2.75;;
4857;SDS011;58975;51.978;8.472;2023-04-24T09:09:21;4.15;;;2.58;;
4857;SDS011;58975;51.978;8.472;2023-04-24T09:14:18;3.13;;;2.50;;
4857;SDS011;58975;51.978;8.472;2023-04-24T09:19:15;2.20;;;2.00;;
4857;SDS011;58975;51.978;8.472;2023-04-24T09:24:16;4.35;;;2.42;;
4857;SDS011;58975;51.978;8.472;2023-04-24T09:29:16;1.48;;;1.25;;
4857;SDS011;58975;51.978;8.472;2023-04-24T09:34:13;1.63;;;1.30;;
4857;SDS011;58975;51.978;8.472;2023-04-24T09:39:11;1.70;;;1.55;;
4857;SDS011;58975;51.978;8.472;2023-04-24T09:44:13;1.77;;;1.48;;
4857;SDS011;58975;51.978;8.472;2023-04-24T09:49:15;3.45;;;1.65;;
4857;SDS011;58975;51.978;8.472;2023-04-24T09:59:18;5.10;;;1.52;;
4857;SDS011;58975;51.978;8.472;2023-04-24T10:04:19;2.42;;;1.73;;
4857;SDS011;58975;51.978;8.472;2023-04-24T10:09:17;1.20;;;1.15;;
4857;SDS011;58975;51.978;8.472;2023-04-24T10:14:15;1.23;;;1.13;;
4857;SDS011;58975;51.978;8.472;2023-04-24T10:19:15;1.65;;;0.60;;
4857;SDS011;58975;51.978;8.472;2023-04-24T10:24:15;1.17;;;1.13;;
4857;SDS011;58975;51.978;8.472;2023-04-24T10:29:14;5.13;;;1.33;;
4857;SDS011;58975;51.978;8.472;2023-04-24T10:34:13;3.75;;;1.48;;
4857;SDS011;58975;51.978;8.472;2023-04-24T10:39:12;3.47;;;2.00;;
4857;SDS011;58975;51.978;8.472;2023-04-24T10:44:12;3.05;;;2.50;;
4857;SDS011;58975;51.978;8.472;2023-04-24T10:49:10;5.05;;;3.30;;
4857;SDS011;58975;51.978;8.472;2023-04-24T10:54:21;7.13;;;3.78;;
4857;SDS011;58975;51.978;8.472;2023-04-24T10:59:26;6.05;;;3.38;;
4857;SDS011;58975;51.978;8.472;2023-04-24T11:04:29;3.63;;;2.55;;
4857;SDS011;58975;51.978;8.472;2023-04-24T11:09:27;2.60;;;2.40;;
4857;SDS011;58975;51.978;8.472;2023-04-24T11:14:25;2.75;;;2.47;;
4857;SDS011;58975;51.978;8.472;2023-04-24T11:19:23;3.75;;;2.70;;
4857;SDS011;58975;51.978;8.472;2023-04-24T11:34:36;2.65;;;2.05;;
4857;SDS011;58975;51.978;8.472;2023-04-24T11:39:37;6.97;;;2.13;;
4857;SDS011;58975;51.978;8.472;2023-04-24T11:44:34;3.22;;;2.58;;
4857;SDS011;58975;51.978;8.472;2023-04-24T11:54:29;3.97;;;3.58;;
4857;SDS011;58975;51.978;8.472;2023-04-24T11:59:25;5.43;;;4.00;;
4857;SDS011;58975;51.978;8.472;2023-04-24T12:04:22;5.32;;;4.03;;
4857;SDS011;58975;51.978;8.472;2023-04-24T12:09:19;3.15;;;2.85;;
4857;SDS011;58975;51.978;8.472;2023-04-24T12:14:15;2.85;;;2.28;;
4857;SDS011;58975;51.978;8.472;2023-04-24T12:19:12;4.35;;;2.55;;
4857;SDS011;58975;51.978;8.472;2023-04-24T12:24:14;4.78;;;2.78;;
4857;SDS011;58975;51.978;8.472;2023-04-24T12:29:11;4.50;;;3.22;;
4857;SDS011;58975;51.978;8.472;2023-04-24T12:34:20;5.85;;;3.00;;
4857;SDS011;58975;51.978;8.472;2023-04-24T12:39:18;6.07;;;3.08;;
4857;SDS011;58975;51.978;8.472;2023-04-24T12:44:16;10.40;;;4.30;;
4857;SDS011;58975;51.978;8.472;2023-04-24T12:49:12;6.63;;;3.65;;
4857;SDS011;58975;51.978;8.472;2023-04-24T12:54:08;8.40;;;3.90;;
4857;SDS011;58975;51.978;8.472;2023-04-24T12:59:05;6.60;;;4.25;;
4857;SDS011;58975;51.978;8.472;2023-04-24T13:04:01;10.05;;;5.60;;
4857;SDS011;58975;51.978;8.472;2023-04-24T13:08:57;8.95;;;4.30;;
4857;SDS011;58975;51.978;8.472;2023-04-24T13:13:54;10.35;;;4.70;;
4857;SDS011;58975;51.978;8.472;2023-04-24T13:18:50;8.88;;;4.00;;
4857;SDS011;58975;51.978;8.472;2023-04-24T13:23:47;5.05;;;4.53;;
4857;SDS011;58975;51.978;8.472;2023-04-24T13:28:43;10.98;;;4.63;;
4857;SDS011;58975;51.978;8.472;2023-04-24T13:33:40;15.93;;;6.70;;
4857;SDS011;58975;51.978;8.472;2023-04-24T13:38:36;7.65;;;5.80;;
4857;SDS011;58975;51.978;8.472;2023-04-24T13:43:33;10.40;;;5.93;;
4857;SDS011;58975;51.978;8.472;2023-04-24T13:48:29;14.45;;;6.45;;
4857;SDS011;58975;51.978;8.472;2023-04-24T13:53:26;9.77;;;6.07;;
4857;SDS011;58975;51.978;8.472;2023-04-24T13:58:22;23.52;;;7.32;;
4857;SDS011;58975;51.978;8.472;2023-04-24T14:03:19;13.57;;;6.95;;
4857;SDS011;58975;51.978;8.472;2023-04-24T14:08:15;17.75;;;7.43;;
4857;SDS011;58975;51.978;8.472;2023-04-24T14:13:12;17.15;;;6.97;;
4857;SDS011;58975;51.978;8.472;2023-04-24T14:18:08;19.85;;;6.97;;
4857;SDS011;58975;51.978;8.472;2023-04-24T14:23:05;11.60;;;5.45;;
4857;SDS011;58975;51.978;8.472;2023-04-24T14:28:02;10.73;;;5.03;;
4857;SDS011;58975;51.978;8.472;2023-04-24T14:32:58;12.70;;;5.10;;
4857;SDS011;58975;51.978;8.472;2023-04-24T14:37:55;13.10;;;4.80;;
4857;SDS011;58975;51.978;8.472;2023-04-24T14:42:51;11.40;;;6.13;;
4857;SDS011;58975;51.978;8.472;2023-04-24T14:47:47;10.40;;;4.68;;
4857;SDS011;58975;51.978;8.472;2023-04-24T14:52:44;13.57;;;4.53;;
4857;SDS011;58975;51.978;8.472;2023-04-24T14:57:40;10.70;;;4.35;;
4857;SDS011;58975;51.978;8.472;2023-04-24T15:02:36;4.45;;;3.33;;
4857;SDS011;58975;51.978;8.472;2023-04-24T15:07:36;5.13;;;3.20;;
4857;SDS011;58975;51.978;8.472;2023-04-24T15:12:33;7.10;;;2.83;;
4857;SDS011;58975;51.978;8.472;2023-04-24T15:17:30;3.80;;;2.40;;
4857;SDS011;58975;51.978;8.472;2023-04-24T15:22:26;7.63;;;2.47;;
4857;SDS011;58975;51.978;8.472;2023-04-24T15:27:23;5.38;;;2.28;;
4857;SDS011;58975;51.978;8.472;2023-04-24T15:32:19;3.92;;;2.20;;
4857;SDS011;58975;51.978;8.472;2023-04-24T15:37:15;1.67;;;1.58;;
4857;SDS011;58975;51.978;8.472;2023-04-24T15:42:13;7.85;;;2.75;;
4857;SDS011;58975;51.978;8.472;2023-04-24T15:47:09;3.17;;;1.85;;
4857;SDS011;58975;51.978;8.472;2023-04-24T15:52:06;2.60;;;1.75;;
4857;SDS011;58975;51.978;8.472;2023-04-24T15:57:02;4.22;;;2.30;;
4857;SDS011;58975;51.978;8.472;2023-04-24T16:01:59;7.25;;;2.75;;
4857;SDS011;58975;51.978;8.472;2023-04-24T16:06:55;5.53;;;2.20;;
4857;SDS011;58975;51.978;8.472;2023-04-24T16:11:52;6.40;;;2.67;;
4857;SDS011;58975;51.978;8.472;2023-04-24T16:16:49;6.18;;;2.13;;
4857;SDS011;58975;51.978;8.472;2023-04-24T16:21:46;9.85;;;2.45;;
4857;SDS011;58975;51.978;8.472;2023-04-24T16:26:42;7.68;;;3.65;;
4857;SDS011;58975;51.978;8.472;2023-04-24T16:31:38;13.18;;;6.00;;
4857;SDS011;58975;51.978;8.472;2023-04-24T16:36:35;7.57;;;4.53;;
4857;SDS011;58975;51.978;8.472;2023-04-24T16:41:32;5.72;;;3.28;;
4857;SDS011;58975;51.978;8.472;2023-04-24T16:46:28;3.80;;;1.92;;
4857;SDS011;58975;51.978;8.472;2023-04-24T16:51:25;10.02;;;2.22;;
4857;SDS011;58975;51.978;8.472;2023-04-24T16:56:22;5.20;;;1.80;;
4857;SDS011;58975;51.978;8.472;2023-04-24T17:01:19;4.22;;;2.00;;
4857;SDS011;58975;51.978;8.472;2023-04-24T17:06:16;4.53;;;1.83;;
4857;SDS011;58975;51.978;8.472;2023-04-24T17:11:12;5.85;;;2.60;;
4857;SDS011;58975;51.978;8.472;2023-04-24T17:16:08;6.30;;;1.90;;
4857;SDS011;58975;51.978;8.472;2023-04-24T17:21:06;4.28;;;1.23;;
4857;SDS011;58975;51.978;8.472;2023-04-24T17:26:02;3.92;;;1.40;;
4857;SDS011;58975;51.978;8.472;2023-04-24T17:30:59;4.10;;;1.80;;
4857;SDS011;58975;51.978;8.472;2023-04-24T17:35:56;2.05;;;1.30;;
4857;SDS011;58975;51.978;8.472;2023-04-24T17:40:53;5.18;;;1.65;;
4857;SDS011;58975;51.978;8.472;2023-04-24T17:45:50;3.83;;;1.90;;
4857;SDS011;58975;51.978;8.472;2023-04-24T17:50:48;5.05;;;1.90;;
4857;SDS011;58975;51.978;8.472;2023-04-24T17:55:44;3.92;;;1.75;;
4857;SDS011;58975;51.978;8.472;2023-04-24T18:00:41;5.63;;;2.30;;
4857;SDS011;58975;51.978;8.472;2023-04-24T18:05:38;6.90;;;2.10;;
4857;SDS011;58975;51.978;8.472;2023-04-24T18:10:34;6.63;;;2.28;;
4857;SDS011;58975;51.978;8.472;2023-04-24T18:15:34;8.77;;;2.10;;
4857;SDS011;58975;51.978;8.472;2023-04-24T18:20:30;8.57;;;2.55;;
4857;SDS011;58975;51.978;8.472;2023-04-24T18:25:27;4.63;;;2.10;;
4857;SDS011;58975;51.978;8.472;2023-04-24T18:30:23;8.77;;;2.95;;
4857;SDS011;58975;51.978;8.472;2023-04-24T18:35:20;4.82;;;1.95;;
4857;SDS011;58975;51.978;8.472;2023-04-24T18:40:17;6.88;;;2.70;;
4857;SDS011;58975;51.978;8.472;2023-04-24T18:45:14;5.28;;;2.15;;
4857;SDS011;58975;51.978;8.472;2023-04-24T18:50:10;6.53;;;2.45;;
4857;SDS011;58975;51.978;8.472;2023-04-24T18:55:07;11.35;;;4.20;;
4857;SDS011;58975;51.978;8.472;2023-04-24T19:00:05;21.08;;;7.63;;
4857;SDS011;58975;51.978;8.472;2023-04-24T19:05:02;9.57;;;2.47;;
4857;SDS011;58975;51.978;8.472;2023-04-24T19:09:58;7.60;;;2.47;;
4857;SDS011;58975;51.978;8.472;2023-04-24T19:14:55;5.07;;;2.97;;
4857;SDS011;58975;51.978;8.472;2023-04-24T19:19:52;7.87;;;2.70;;
4857;SDS011;58975;51.978;8.472;2023-04-24T19:24:49;6.82;;;2.92;;
4857;SDS011;58975;51.978;8.472;2023-04-24T19:29:45;10.23;;;3.40;;
4857;SDS011;58975;51.978;8.472;2023-04-24T19:34:42;7.93;;;3.67;;
4857;SDS011;58975;51.978;8.472;2023-04-24T19:39:38;8.02;;;2.78;;
4857;SDS011;58975;51.978;8.472;2023-04-24T19:44:35;6.43;;;3.10;;
4857;SDS011;58975;51.978;8.472;2023-04-24T19:49:32;8.43;;;2.97;;
4857;SDS011;58975;51.978;8.472;2023-04-24T19:54:28;8.68;;;3.63;;
4857;SDS011;58975;51.978;8.472;2023-04-24T19:59:24;6.63;;;3.08;;
4857;SDS011;58975;51.978;8.472;2023-04-24T20:04:21;7.47;;;3.80;;
4857;SDS011;58975;51.978;8.472;2023-04-24T20:09:18;11.50;;;5.03;;
4857;SDS011;58975;51.978;8.472;2023-04-24T20:14:14;8.32;;;3.42;;
4857;SDS011;58975;51.978;8.472;2023-04-24T20:19:11;9.13;;;3.20;;
4857;SDS011;58975;51.978;8.472;2023-04-24T20:24:08;15.07;;;3.85;;
4857;SDS011;58975;51.978;8.472;2023-04-24T20:29:05;8.70;;;3.80;;
4857;SDS011;58975;51.978;8.472;2023-04-24T20:34:03;8.57;;;3.60;;
4857;SDS011;58975;51.978;8.472;2023-04-24T20:39:01;11.23;;;4.40;;
4857;SDS011;58975;51.978;8.472;2023-04-24T20:48:56;12.98;;;4.35;;
4857;SDS011;58975;51.978;8.472;2023-04-24T20:53:53;13.93;;;4.35;;
4857;SDS011;58975;51.978;8.472;2023-04-24T20:58:49;9.15;;;3.35;;
4857;SDS011;58975;51.978;8.472;2023-04-24T21:03:48;9.10;;;3.83;;
4857;SDS011;58975;51.978;8.472;2023-04-24T21:08:46;8.00;;;3.45;;
4857;SDS011;58975;51.978;8.472;2023-04-24T21:13:42;6.10;;;3.42;;
4857;SDS011;58975;51.978;8.472;2023-04-24T21:18:38;13.85;;;3.95;;
4857;SDS011;58975;51.978;8.472;2023-04-24T21:23:36;11.13;;;4.13;;
4857;SDS011;58975;51.978;8.472;2023-04-24T21:28:32;11.75;;;4.13;;
4857;SDS011;58975;51.978;8.472;2023-04-24T21:33:29;13.18;;;4.40;;
4857;SDS011;58975;51.978;8.472;2023-04-24T21:38:26;16.23;;;4.15;;
4857;SDS011;58975;51.978;8.472;2023-04-24T21:43:22;10.90;;;5.30;;
4857;SDS011;58975;51.978;8.472;2023-04-24T21:48:32;12.35;;;4.35;;
4857;SDS011;58975;51.978;8.472;2023-04-24T21:53:28;19.92;;;4.65;;
4857;SDS011;58975;51.978;8.472;2023-04-24T21:58:25;14.07;;;4.53;;
4857;SDS011;58975;51.978;8.472;2023-04-24T22:03:21;14.43;;;5.43;;
4857;SDS011;58975;51.978;8.472;2023-04-24T22:08:18;15.73;;;4.75;;
4857;SDS011;58975;51.978;8.472;2023-04-24T22:13:15;18.58;;;4.38;;
4857;SDS011;58975;51.978;8.472;2023-04-24T22:18:11;9.15;;;4.35;;
4857;SDS011;58975;51.978;8.472;2023-04-24T22:23:08;14.98;;;4.25;;
4857;SDS011;58975;51.978;8.472;2023-04-24T22:28:05;15.15;;;5.55;;
4857;SDS011;58975;51.978;8.472;2023-04-24T22:33:01;14.35;;;4.35;;
4857;SDS011;58975;51.978;8.472;2023-04-24T22:37:58;14.50;;;4.95;;
4857;SDS011;58975;51.978;8.472;2023-04-24T22:42:55;16.00;;;4.93;;
4857;SDS011;58975;51.978;8.472;2023-04-24T22:47:51;9.52;;;4.65;;
4857;SDS011;58975;51.978;8.472;2023-04-24T22:52:48;16.17;;;4.32;;
4857;SDS011;58975;51.978;8.472;2023-04-24T22:57:46;13.70;;;4.60;;
4857;SDS011;58975;51.978;8.472;2023-04-24T23:02:43;14.82;;;4.32;;
4857;SDS011;58975;51.978;8.472;2023-04-24T23:07:40;14.95;;;4.57;;
4857;SDS011;58975;51.978;8.472;2023-04-24T23:12:37;12.27;;;5.20;;
4857;SDS011;58975;51.978;8.472;2023-04-24T23:17:33;24.23;;;5.20;;
4857;SDS011;58975;51.978;8.472;2023-04-24T23:22:29;16.85;;;4.43;;
4857;SDS011;58975;51.978;8.472;2023-04-24T23:27:26;19.75;;;4.55;;
4857;SDS011;58975;51.978;8.472;2023-04-24T23:32:22;18.27;;;4.47;;
4857;SDS011;58975;51.978;8.472;2023-04-24T23:37:19;18.52;;;5.00;;
4857;SDS011;58975;51.978;8.472;2023-04-24T23:42:15;17.92;;;4.70;;
4857;SDS011;58975;51.978;8.472;2023-04-24T23:47:12;12.27;;;4.18;;
4857;SDS011;58975;51.978;8.472;2023-04-24T23:52:08;8.65;;;4.32;;
4857;SDS011;58975;51.978;8.472;2023-04-24T23:57:05;17.55;;;5.55;;
